createdAt,value
2017-09-06T00:00:12.343Z,77.5
2017-09-06T00:00:40.389Z,77.5
2017-09-06T00:01:08.556Z,77.5
2017-09-06T00:01:36.749Z,77.59
2017-09-06T00:02:04.741Z,77.31
2017-09-06T00:02:32.818Z,77.78
2017-09-06T00:03:01.074Z,77.5
2017-09-06T00:03:29.418Z,77.98
2017-09-06T00:03:57.496Z,77.88
2017-09-06T00:04:25.519Z,78.08
2017-09-06T00:04:53.564Z,78.17
2017-09-06T00:05:21.971Z,77.78
2017-09-06T00:05:50.107Z,78.17
2017-09-06T00:06:18.156Z,77.88
2017-09-06T00:06:46.457Z,78.65
2017-09-06T00:07:14.620Z,78.75
2017-09-06T00:07:42.706Z,78.55
2017-09-06T00:08:10.876Z,78.75
2017-09-06T00:08:39.031Z,78.94
2017-09-06T00:09:07.139Z,78.84
2017-09-06T00:09:35.328Z,79.42
2017-09-06T00:10:03.257Z,79.42
2017-09-06T00:10:31.427Z,79.13
2017-09-06T00:10:59.603Z,79.13
2017-09-06T00:11:27.660Z,79.22
2017-09-06T00:11:55.826Z,79.71
2017-09-06T00:12:23.910Z,79.8
2017-09-06T00:12:51.870Z,79.71
2017-09-06T00:13:20.172Z,79.99
2017-09-06T00:13:48.235Z,79.61
2017-09-06T00:14:16.230Z,79.99
2017-09-06T00:14:44.455Z,80.28
2017-09-06T00:15:12.622Z,80.19
2017-09-06T00:15:40.661Z,80.53
2017-09-06T00:16:08.688Z,80.57
2017-09-06T00:16:37.072Z,80.53
2017-09-06T00:17:05.779Z,80.43
2017-09-06T00:17:34.342Z,80.63
2017-09-06T00:18:02.320Z,80.66
2017-09-06T00:18:30.466Z,80.57
2017-09-06T00:18:58.289Z,80.24
2017-09-06T00:19:26.328Z,81.01
2017-09-06T00:19:54.522Z,81.2
2017-09-06T00:20:22.652Z,81.3
2017-09-06T00:20:50.547Z,81.2
2017-09-06T00:21:18.657Z,81.4
2017-09-06T00:21:46.689Z,81.92
2017-09-06T00:22:14.828Z,81.87
2017-09-06T00:22:42.982Z,82.01
2017-09-06T00:23:10.909Z,82.97
2017-09-06T00:23:39.165Z,83.26
2017-09-06T00:24:07.231Z,84.41
2017-09-06T00:24:35.140Z,83.93
2017-09-06T00:25:03.302Z,84.6
2017-09-06T00:25:31.427Z,85.08
2017-09-06T00:25:59.417Z,84.99
2017-09-06T00:26:27.462Z,84.89
2017-09-06T00:26:55.317Z,85.37
2017-09-06T00:27:23.317Z,85.28
2017-09-06T00:27:51.387Z,85.18
2017-09-06T00:28:19.665Z,85.08
2017-09-06T00:28:47.709Z,85.85
2017-09-06T00:29:15.837Z,85.75
2017-09-06T00:29:43.893Z,85.57
2017-09-06T00:30:11.937Z,85.57
2017-09-06T00:30:39.977Z,85.47
2017-09-06T00:31:08.093Z,86.14
2017-09-06T00:31:36.122Z,86.14
2017-09-06T00:32:04.188Z,85.95
2017-09-06T00:32:32.378Z,86.33
2017-09-06T00:33:00.419Z,86.05
2017-09-06T00:33:28.557Z,86.43
2017-09-06T00:33:56.610Z,86.62
2017-09-06T00:34:24.658Z,86.43
2017-09-06T00:34:52.686Z,86.62
2017-09-06T00:35:20.856Z,86.43
2017-09-06T00:35:48.900Z,86.52
2017-09-06T00:36:17.106Z,86.43
2017-09-06T00:36:45.260Z,86.43
2017-09-06T00:37:13.298Z,86.58
2017-09-06T00:37:41.310Z,86.48
2017-09-06T00:38:09.239Z,86.68
2017-09-06T00:38:37.403Z,86.96
2017-09-06T00:39:05.350Z,87.15
2017-09-06T00:39:33.386Z,87.44
2017-09-06T00:40:01.509Z,87.63
2017-09-06T00:40:29.674Z,87.63
2017-09-06T00:40:57.812Z,87.54
2017-09-06T00:41:25.862Z,87.44
2017-09-06T00:41:53.830Z,87.82
2017-09-06T00:42:21.867Z,87.54
2017-09-06T00:42:49.792Z,87.35
2017-09-06T00:43:17.881Z,87.44
2017-09-06T00:43:46.096Z,87.63
2017-09-06T00:44:14.188Z,87.54
2017-09-06T00:44:42.360Z,87.63
2017-09-06T00:45:10.560Z,87.54
2017-09-06T00:45:38.754Z,88.02
2017-09-06T00:46:06.817Z,88.02
2017-09-06T00:46:35.001Z,88.49
2017-09-06T00:47:03.148Z,88.4
2017-09-06T00:47:31.292Z,88.31
2017-09-06T00:47:59.362Z,88.49
2017-09-06T00:48:27.519Z,88.69
2017-09-06T00:48:55.555Z,88.21
2017-09-06T00:49:23.678Z,88.49
2017-09-06T00:49:51.848Z,88.21
2017-09-06T00:50:19.968Z,89.12
2017-09-06T00:50:48.149Z,89.41
2017-09-06T00:51:16.289Z,89.41
2017-09-06T00:51:44.329Z,89.79
2017-09-06T00:52:12.389Z,89.61
2017-09-06T00:52:40.455Z,89.61
2017-09-06T00:53:08.626Z,89.89
2017-09-06T00:53:36.765Z,89.61
2017-09-06T00:54:04.712Z,89.7
2017-09-06T00:54:32.743Z,89.89
2017-09-06T00:55:00.876Z,89.79
2017-09-06T00:55:28.820Z,89.89
2017-09-06T00:55:56.741Z,89.7
2017-09-06T00:56:24.918Z,90.28
2017-09-06T00:56:53.063Z,90.37
2017-09-06T00:57:21.238Z,90.37
2017-09-06T00:57:49.194Z,90.66
2017-09-06T00:58:17.245Z,90.56
2017-09-06T00:58:45.355Z,90.28
2017-09-06T00:59:13.392Z,90.37
2017-09-06T00:59:41.358Z,90.66
2017-09-06T01:00:09.503Z,90.47
2017-09-06T01:00:37.399Z,90.47
2017-09-06T01:01:05.392Z,90.66
2017-09-06T01:01:33.315Z,90.85
2017-09-06T01:02:01.491Z,91.33
2017-09-06T01:02:29.504Z,90.95
2017-09-06T01:02:57.528Z,91.05
2017-09-06T01:03:25.564Z,91.24
2017-09-06T01:03:53.748Z,91.62
2017-09-06T01:04:21.810Z,91.33
2017-09-06T01:04:49.857Z,91.52
2017-09-06T01:05:17.901Z,91.33
2017-09-06T01:05:45.863Z,91.33
2017-09-06T01:06:13.884Z,91.05
2017-09-06T01:06:41.794Z,91.24
2017-09-06T01:07:09.834Z,91.05
2017-09-06T01:07:37.773Z,90.95
2017-09-06T01:08:05.856Z,91.24
2017-09-06T01:08:33.917Z,91.52
2017-09-06T01:09:02.045Z,91.14
2017-09-06T01:09:30.083Z,91.81
2017-09-06T01:09:58.251Z,91.91
2017-09-06T01:10:26.403Z,91.52
2017-09-06T01:10:54.544Z,91.72
2017-09-06T01:11:22.690Z,91.52
2017-09-06T01:11:50.722Z,92
2017-09-06T01:12:18.877Z,91.81
2017-09-06T01:12:47.002Z,91.72
2017-09-06T01:13:15.066Z,92
2017-09-06T01:13:43.098Z,92
2017-09-06T01:14:11.236Z,92.68
2017-09-06T01:14:39.293Z,91.81
2017-09-06T01:15:07.213Z,92.48
2017-09-06T01:15:35.356Z,92.19
2017-09-06T01:16:03.519Z,92.1
2017-09-06T01:16:31.565Z,92
2017-09-06T01:16:59.456Z,92.48
2017-09-06T01:17:27.536Z,92.39
2017-09-06T01:17:55.568Z,92.77
2017-09-06T01:18:23.737Z,93.06
2017-09-06T01:18:52.053Z,93.06
2017-09-06T01:19:20.207Z,93.06
2017-09-06T01:19:48.220Z,93.06
2017-09-06T01:20:16.423Z,92.96
2017-09-06T01:20:44.583Z,92.77
2017-09-06T01:21:12.760Z,92.68
2017-09-06T01:21:40.672Z,92.77
2017-09-06T01:22:08.855Z,92.86
2017-09-06T01:22:36.911Z,92.63
2017-09-06T01:23:04.968Z,92.96
2017-09-06T01:23:33.107Z,92.96
2017-09-06T01:24:01.353Z,93.54
2017-09-06T01:24:29.491Z,92.96
2017-09-06T01:24:57.641Z,93.35
2017-09-06T01:25:25.770Z,93.25
2017-09-06T01:25:53.734Z,93.35
2017-09-06T01:26:21.906Z,93.25
2017-09-06T01:26:49.836Z,93.35
2017-09-06T01:27:17.854Z,93.73
2017-09-06T01:27:46.024Z,93.73
2017-09-06T01:28:14.208Z,93.92
2017-09-06T01:28:42.394Z,94.31
2017-09-06T01:29:10.518Z,94.4
2017-09-06T01:29:38.557Z,94.31
2017-09-06T01:30:06.683Z,93.92
2017-09-06T01:30:34.708Z,94.88
2017-09-06T01:31:02.864Z,93.92
2017-09-06T01:31:30.978Z,95.07
2017-09-06T01:31:59.032Z,94.4
2017-09-06T01:32:27.146Z,94.88
2017-09-06T01:32:55.162Z,94.98
2017-09-06T01:33:23.314Z,94.74
2017-09-06T01:33:51.382Z,94.69
2017-09-06T01:34:19.512Z,94.69
2017-09-06T01:34:47.649Z,94.98
2017-09-06T01:35:15.621Z,94.79
2017-09-06T01:35:43.545Z,94.64
2017-09-06T01:36:11.589Z,94.64
2017-09-06T01:36:39.632Z,94.93
2017-09-06T01:37:07.678Z,94.98
2017-09-06T01:37:35.853Z,94.84
2017-09-06T01:38:03.866Z,95.46
2017-09-06T01:38:31.908Z,95.55
2017-09-06T01:39:00.073Z,94.84
2017-09-06T01:39:28.118Z,95.12
2017-09-06T01:39:56.265Z,95.6
2017-09-06T01:40:24.196Z,95.41
2017-09-06T01:40:52.243Z,95.51
2017-09-06T01:41:20.378Z,95.51
2017-09-06T01:41:48.454Z,95.6
2017-09-06T01:42:16.529Z,95.21
2017-09-06T01:42:44.526Z,95.41
2017-09-06T01:43:12.487Z,95.41
2017-09-06T01:43:40.549Z,95.21
2017-09-06T01:44:08.830Z,95.98
2017-09-06T01:44:36.987Z,95.79
2017-09-06T01:45:04.837Z,95.98
2017-09-06T01:45:32.913Z,96.08
2017-09-06T01:46:00.933Z,95.79
2017-09-06T01:46:28.890Z,95.89
2017-09-06T01:46:56.965Z,96.08
2017-09-06T01:47:25.100Z,95.98
2017-09-06T01:47:53.169Z,95.98
2017-09-06T01:48:21.269Z,95.98
2017-09-06T01:48:49.130Z,96.08
2017-09-06T01:49:17.339Z,96.27
2017-09-06T01:49:45.312Z,95.89
2017-09-06T01:50:13.284Z,95.79
2017-09-06T01:50:41.467Z,96.08
2017-09-06T01:51:09.500Z,96.08
2017-09-06T01:51:37.577Z,96.08
2017-09-06T01:52:05.718Z,95.79
2017-09-06T01:52:33.869Z,95.98
2017-09-06T01:53:02.010Z,95.79
2017-09-06T01:53:30.070Z,95.6
2017-09-06T01:53:58.177Z,96.08
2017-09-06T01:54:26.321Z,95.98
2017-09-06T01:54:54.353Z,96.66
2017-09-06T01:55:22.383Z,96.75
2017-09-06T01:55:50.485Z,96.08
2017-09-06T01:56:18.326Z,96.8
2017-09-06T01:56:46.447Z,96.27
2017-09-06T01:57:14.604Z,96.37
2017-09-06T01:57:42.667Z,96.85
2017-09-06T01:58:10.791Z,96.75
2017-09-06T01:58:38.714Z,96.75
2017-09-06T01:59:06.882Z,96.7
2017-09-06T01:59:35.064Z,96.32
2017-09-06T02:00:03.231Z,96.32
2017-09-06T02:00:31.283Z,96.42
2017-09-06T02:00:59.434Z,96.42
2017-09-06T02:01:27.476Z,96.13
2017-09-06T02:01:55.466Z,96.27
2017-09-06T02:02:23.524Z,96.47
2017-09-06T02:02:51.673Z,96.22
2017-09-06T02:03:19.908Z,96.42
2017-09-06T02:03:48.034Z,96.42
2017-09-06T02:04:15.978Z,96.89
2017-09-06T02:04:44.107Z,96.22
2017-09-06T02:05:12.215Z,96.89
2017-09-06T02:05:40.292Z,96.13
2017-09-06T02:06:08.430Z,96.13
2017-09-06T02:06:36.589Z,95.84
2017-09-06T02:07:04.724Z,96.03
2017-09-06T02:07:32.743Z,95.94
2017-09-06T02:08:00.677Z,96.8
2017-09-06T02:08:28.863Z,96.56
2017-09-06T02:08:57.047Z,96.7
2017-09-06T02:09:25.207Z,96.8
2017-09-06T02:09:53.226Z,96.22
2017-09-06T02:10:21.376Z,96.08
2017-09-06T02:10:49.461Z,96.03
2017-09-06T02:11:17.398Z,96.8
2017-09-06T02:11:45.529Z,95.79
2017-09-06T02:12:13.589Z,96.32
2017-09-06T02:12:41.717Z,96.66
2017-09-06T02:13:09.848Z,96.56
2017-09-06T02:13:37.790Z,96.94
2017-09-06T02:14:05.753Z,96.47
2017-09-06T02:14:33.962Z,96.75
2017-09-06T02:15:01.881Z,96.66
2017-09-06T02:15:29.975Z,97.14
2017-09-06T02:15:58.088Z,96.94
2017-09-06T02:16:26.040Z,96.94
2017-09-06T02:16:54.071Z,96.75
2017-09-06T02:17:22.130Z,97.42
2017-09-06T02:17:50.235Z,97.47
2017-09-06T02:18:18.241Z,97.23
2017-09-06T02:18:46.287Z,97.23
2017-09-06T02:19:14.500Z,97.23
2017-09-06T02:19:42.874Z,97.28
2017-09-06T02:20:11.009Z,97.23
2017-09-06T02:20:39.790Z,97.28
2017-09-06T02:21:07.805Z,97.42
2017-09-06T02:21:35.870Z,96.99
2017-09-06T02:22:03.801Z,96.75
2017-09-06T02:22:31.921Z,97.42
2017-09-06T02:22:59.891Z,97.04
2017-09-06T02:23:27.954Z,97.04
2017-09-06T02:23:55.995Z,97.33
2017-09-06T02:24:23.976Z,97.23
2017-09-06T02:24:52.167Z,97.42
2017-09-06T02:25:20.211Z,97.33
2017-09-06T02:25:48.332Z,98
2017-09-06T02:26:16.545Z,97.9
2017-09-06T02:26:44.571Z,97.9
2017-09-06T02:27:12.690Z,98
2017-09-06T02:27:40.655Z,97.42
2017-09-06T02:28:08.690Z,97.33
2017-09-06T02:28:36.858Z,97.42
2017-09-06T02:29:04.777Z,97.61
2017-09-06T02:29:32.844Z,97.8
2017-09-06T02:30:01.092Z,97.61
2017-09-06T02:30:29.160Z,97.71
2017-09-06T02:30:56.981Z,97.71
2017-09-06T02:31:25.027Z,97.61
2017-09-06T02:31:53.155Z,97.52
2017-09-06T02:32:21.114Z,97.52
2017-09-06T02:32:49.136Z,97.71
2017-09-06T02:33:17.708Z,97.52
2017-09-06T02:33:45.748Z,97.71
2017-09-06T02:34:13.918Z,98.19
2017-09-06T02:34:42.309Z,97.9
2017-09-06T02:35:10.568Z,98
2017-09-06T02:35:38.748Z,98.19
2017-09-06T02:36:06.931Z,97.71
2017-09-06T02:36:35.094Z,97.52
2017-09-06T02:37:03.212Z,97.33
2017-09-06T02:37:31.351Z,97.52
2017-09-06T02:37:59.422Z,97.8
2017-09-06T02:38:27.580Z,97.61
2017-09-06T02:38:55.608Z,97.61
2017-09-06T02:39:23.804Z,97.61
2017-09-06T02:39:52.042Z,97.71
2017-09-06T02:40:20.108Z,97.8
2017-09-06T02:40:48.072Z,97.61
2017-09-06T02:41:16.168Z,97.33
2017-09-06T02:41:44.261Z,97.33
2017-09-06T02:42:12.392Z,97.9
2017-09-06T02:42:40.539Z,98.38
2017-09-06T02:43:08.575Z,98
2017-09-06T02:43:36.433Z,97.52
2017-09-06T02:44:04.532Z,98.76
2017-09-06T02:44:32.819Z,98.47
2017-09-06T02:45:01.004Z,98.67
2017-09-06T02:45:29.135Z,98.57
2017-09-06T02:45:57.164Z,98.67
2017-09-06T02:46:25.389Z,98.67
2017-09-06T02:46:53.543Z,98.57
2017-09-06T02:47:21.580Z,98.47
2017-09-06T02:47:49.626Z,98
2017-09-06T02:48:17.855Z,97.71
2017-09-06T02:48:45.891Z,98.47
2017-09-06T02:49:14.062Z,98.76
2017-09-06T02:49:42.267Z,99.05
2017-09-06T02:50:10.504Z,99.34
2017-09-06T02:50:38.693Z,99.99
2017-09-06T02:51:06.932Z,99.82
2017-09-06T02:51:35.004Z,99.63
2017-09-06T02:52:02.996Z,99.63
2017-09-06T02:52:31.066Z,99.15
2017-09-06T02:52:59.359Z,98.76
2017-09-06T02:53:27.539Z,97.9
2017-09-06T02:53:55.776Z,97.8
2017-09-06T02:54:24.069Z,96.94
2017-09-06T02:54:52.186Z,96.37
2017-09-06T02:55:20.276Z,96.47
2017-09-06T02:55:48.314Z,96.08
2017-09-06T02:56:16.357Z,95.7
2017-09-06T02:56:44.442Z,95.98
2017-09-06T02:57:12.529Z,95.6
2017-09-06T02:57:40.629Z,95.51
2017-09-06T02:58:08.764Z,94.55
2017-09-06T02:58:36.834Z,94.45
2017-09-06T02:59:04.998Z,93.78
2017-09-06T02:59:33.039Z,93.49
2017-09-06T03:00:01.210Z,93.3
2017-09-06T03:00:29.250Z,92.06
2017-09-06T03:00:57.427Z,91.39
2017-09-06T03:01:25.557Z,91.39
2017-09-06T03:01:53.691Z,91.29
2017-09-06T03:02:21.553Z,90.81
2017-09-06T03:02:49.543Z,90.43
2017-09-06T03:03:17.700Z,89.95
2017-09-06T03:03:45.661Z,90.14
2017-09-06T03:04:13.737Z,90.23
2017-09-06T03:04:41.483Z,89.57
2017-09-06T03:05:09.738Z,89.86
2017-09-06T03:05:37.937Z,89.37
2017-09-06T03:06:05.991Z,88.99
2017-09-06T03:06:33.924Z,88.9
2017-09-06T03:07:01.996Z,89.47
2017-09-06T03:07:30.206Z,89.37
2017-09-06T03:07:58.221Z,88.51
2017-09-06T03:08:26.326Z,88.7
2017-09-06T03:08:54.345Z,88.32
2017-09-06T03:09:22.459Z,88.7
2017-09-06T03:09:50.514Z,88.03
2017-09-06T03:10:18.652Z,88.61
2017-09-06T03:10:46.749Z,88.51
2017-09-06T03:11:14.880Z,88.7
2017-09-06T03:11:43.006Z,88.42
2017-09-06T03:12:11.044Z,88.09
2017-09-06T03:12:39.190Z,88.32
2017-09-06T03:13:07.145Z,87.94
2017-09-06T03:13:35.108Z,87.37
2017-09-06T03:14:03.215Z,87.37
2017-09-06T03:14:31.380Z,87.37
2017-09-06T03:14:59.556Z,86.88
2017-09-06T03:15:27.807Z,86.79
2017-09-06T03:15:55.755Z,86.41
2017-09-06T03:16:23.657Z,85.45
2017-09-06T03:16:51.635Z,85.06
2017-09-06T03:17:19.687Z,84.68
2017-09-06T03:19:27.240Z,83.72
2017-09-06T03:19:55.244Z,84.11
2017-09-06T03:20:23.676Z,84.11
2017-09-06T03:20:51.877Z,84.39
2017-09-06T03:21:20.134Z,85.16
2017-09-06T03:21:48.175Z,85.06
2017-09-06T03:22:16.437Z,85.93
2017-09-06T03:22:44.543Z,86.79
2017-09-06T03:23:12.556Z,87.46
2017-09-06T03:23:40.554Z,88.8
2017-09-06T03:24:08.907Z,89.47
2017-09-06T03:24:36.882Z,89.72
2017-09-06T03:25:05.120Z,90.48
2017-09-06T03:25:33.238Z,91.63
2017-09-06T03:26:01.466Z,91.92
2017-09-06T03:26:29.547Z,92.87
2017-09-06T03:26:57.666Z,92.87
2017-09-06T03:27:25.905Z,93.45
2017-09-06T03:27:53.974Z,94.12
2017-09-06T03:28:22.167Z,95.46
2017-09-06T03:28:50.382Z,96.03
2017-09-06T03:29:18.467Z,97.09
2017-09-06T03:29:46.587Z,97.56
2017-09-06T03:30:14.711Z,98.62
2017-09-06T03:30:43.026Z,98.91
2017-09-06T03:31:11.249Z,99.96
2017-09-06T03:31:39.383Z,99.99
2017-09-06T03:32:07.571Z,99.99
2017-09-06T03:32:35.706Z,99.99
2017-09-06T03:33:03.819Z,99.99
2017-09-06T03:33:31.783Z,99.99
2017-09-06T03:33:59.684Z,99.99
2017-09-06T03:34:27.639Z,99.99
2017-09-06T03:34:55.707Z,99.99
2017-09-06T03:35:24.165Z,99.99
2017-09-06T03:35:52.260Z,99.99
2017-09-06T03:36:20.390Z,99.99
2017-09-06T03:36:48.854Z,99.99
2017-09-06T03:37:17.115Z,99.99
2017-09-06T03:37:45.284Z,99.99
2017-09-06T03:38:13.428Z,99.99
2017-09-06T03:38:41.686Z,99.99
2017-09-06T03:39:09.958Z,99.99
2017-09-06T03:39:38.131Z,99.99
2017-09-06T03:40:06.257Z,99.99
2017-09-06T03:40:34.560Z,99.99
2017-09-06T03:41:02.843Z,99.99
2017-09-06T03:41:30.984Z,99.99
2017-09-06T03:41:59.272Z,99.99
2017-09-06T03:42:27.321Z,99.99
2017-09-06T03:42:55.457Z,99.99
2017-09-06T03:43:23.606Z,99.99
2017-09-06T03:43:51.824Z,99.99
2017-09-06T03:44:19.978Z,99.99
2017-09-06T03:44:48.164Z,99.99
2017-09-06T03:45:16.228Z,99.99
2017-09-06T03:45:44.388Z,99.99
2017-09-06T03:46:12.574Z,99.99
2017-09-06T03:46:40.710Z,99.99
2017-09-06T03:47:08.920Z,99.99
2017-09-06T03:47:36.824Z,99.99
2017-09-06T03:48:04.963Z,99.99
2017-09-06T03:48:33.157Z,99.99
2017-09-06T03:49:01.299Z,99.99
2017-09-06T03:49:29.418Z,99.99
2017-09-06T03:49:57.432Z,99.99
2017-09-06T03:50:25.603Z,99.99
2017-09-06T03:50:53.720Z,99.99
2017-09-06T03:51:21.733Z,99.99
2017-09-06T03:51:49.939Z,99.99
2017-09-06T03:52:18.190Z,99.99
2017-09-06T03:52:46.342Z,99.99
2017-09-06T03:53:14.266Z,99.99
2017-09-06T03:53:42.472Z,99.99
2017-09-06T03:54:10.719Z,99.99
2017-09-06T03:54:38.942Z,99.99
2017-09-06T03:55:07.115Z,99.99
2017-09-06T03:55:35.258Z,99.99
2017-09-06T03:56:03.614Z,99.99
2017-09-06T03:56:31.805Z,99.99
2017-09-06T03:57:00.084Z,99.99
2017-09-06T03:57:28.348Z,99.99
2017-09-06T03:57:56.477Z,99.99
2017-09-06T03:58:24.493Z,99.99
2017-09-06T03:58:52.704Z,99.99
2017-09-06T03:59:20.936Z,99.99
2017-09-06T03:59:49.171Z,99.99
2017-09-06T04:00:17.412Z,99.99
2017-09-06T04:00:45.581Z,99.99
2017-09-06T04:01:13.730Z,99.99
2017-09-06T04:01:41.921Z,99.99
2017-09-06T04:02:10.176Z,99.99
2017-09-06T04:02:38.295Z,99.99
2017-09-06T04:03:06.501Z,99.99
2017-09-06T04:03:34.641Z,99.99
2017-09-06T04:04:02.743Z,99.99
2017-09-06T04:04:30.970Z,99.99
2017-09-06T04:04:59.232Z,99.99
2017-09-06T04:05:27.484Z,99.99
2017-09-06T04:05:55.748Z,99.99
2017-09-06T04:06:23.962Z,99.99
2017-09-06T04:06:52.108Z,99.99
2017-09-06T04:07:20.349Z,99.99
2017-09-06T04:07:48.552Z,99.99
2017-09-06T04:08:16.656Z,99.99
2017-09-06T04:08:44.694Z,99.99
2017-09-06T04:09:12.959Z,99.99
2017-09-06T04:09:41.145Z,99.99
2017-09-06T04:10:09.263Z,99.99
2017-09-06T04:10:37.516Z,99.99
2017-09-06T04:11:05.839Z,99.99
2017-09-06T04:11:33.974Z,99.99
2017-09-06T04:12:02.115Z,99.99
2017-09-06T04:12:30.359Z,99.99
2017-09-06T04:12:58.598Z,99.99
2017-09-06T04:13:26.518Z,99.99
2017-09-06T04:13:54.811Z,99.99
2017-09-06T04:14:23.032Z,99.99
2017-09-06T04:14:51.277Z,99.99
2017-09-06T04:15:19.459Z,99.99
2017-09-06T04:15:47.583Z,99.99
2017-09-06T04:16:15.848Z,99.99
2017-09-06T04:16:44.082Z,99.99
2017-09-06T04:17:12.301Z,99.99
2017-09-06T04:17:40.553Z,99.99
2017-09-06T04:18:08.683Z,99.99
2017-09-06T04:18:36.937Z,99.99
2017-09-06T04:19:05.172Z,99.99
2017-09-06T04:19:33.430Z,99.99
2017-09-06T04:20:01.558Z,99.99
2017-09-06T04:20:29.603Z,99.99
2017-09-06T04:20:57.641Z,99.99
2017-09-06T04:21:25.998Z,99.99
2017-09-06T04:21:54.259Z,99.99
2017-09-06T04:22:22.443Z,99.99
2017-09-06T04:22:50.687Z,99.99
2017-09-06T04:23:18.957Z,99.99
2017-09-06T04:23:47.107Z,99.99
2017-09-06T04:24:15.238Z,99.99
2017-09-06T04:24:43.445Z,99.99
2017-09-06T04:25:11.545Z,99.99
2017-09-06T04:25:39.811Z,99.99
2017-09-06T04:26:08.067Z,99.99
2017-09-06T04:26:36.297Z,99.99
2017-09-06T04:27:04.346Z,99.99
2017-09-06T04:27:32.483Z,99.99
2017-09-06T04:28:00.511Z,99.99
2017-09-06T04:28:28.727Z,99.99
2017-09-06T04:28:56.864Z,99.99
2017-09-06T04:29:25.080Z,99.99
2017-09-06T04:29:53.191Z,99.99
2017-09-06T04:30:21.319Z,99.99
2017-09-06T04:30:49.510Z,99.99
2017-09-06T04:31:17.761Z,99.99
2017-09-06T04:31:45.727Z,99.99
2017-09-06T04:32:13.983Z,99.99
2017-09-06T04:32:42.116Z,99.99
2017-09-06T04:33:10.333Z,99.99
2017-09-06T04:33:38.565Z,99.99
2017-09-06T04:34:06.666Z,99.99
2017-09-06T04:34:34.916Z,99.99
2017-09-06T04:35:03.041Z,99.99
2017-09-06T04:35:31.292Z,99.99
2017-09-06T04:35:59.793Z,99.99
2017-09-06T04:36:28.192Z,99.99
2017-09-06T04:36:56.411Z,99.99
2017-09-06T04:37:24.657Z,99.99
2017-09-06T04:37:52.915Z,99.99
2017-09-06T04:38:21.119Z,99.99
2017-09-06T04:38:49.271Z,99.99
2017-09-06T04:39:17.389Z,99.99
2017-09-06T04:39:45.420Z,99.99
2017-09-06T04:40:13.457Z,99.99
2017-09-06T04:40:41.508Z,99.99
2017-09-06T04:41:09.515Z,99.99
2017-09-06T04:41:37.936Z,99.99
2017-09-06T04:42:06.174Z,99.99
2017-09-06T04:42:34.441Z,99.99
2017-09-06T04:43:02.580Z,99.99
2017-09-06T04:43:30.836Z,99.99
2017-09-06T04:43:58.940Z,99.99
2017-09-06T04:44:27.143Z,99.99
2017-09-06T04:44:55.199Z,99.99
2017-09-06T04:45:23.469Z,99.99
2017-09-06T04:45:51.649Z,99.99
2017-09-06T04:46:19.865Z,99.99
2017-09-06T04:46:48.388Z,99.99
2017-09-06T04:47:16.633Z,99.99
2017-09-06T04:47:44.756Z,99.99
2017-09-06T04:48:13.003Z,99.99
2017-09-06T04:48:41.170Z,99.99
2017-09-06T04:49:09.184Z,99.99
2017-09-06T04:49:37.238Z,99.99
2017-09-06T04:50:05.142Z,99.99
2017-09-06T04:50:33.440Z,99.99
2017-09-06T04:51:01.575Z,99.99
2017-09-06T04:51:29.928Z,99.99
2017-09-06T04:51:58.063Z,99.99
2017-09-06T04:52:26.194Z,99.99
2017-09-06T04:52:54.454Z,99.99
2017-09-06T04:53:22.565Z,99.99
2017-09-06T04:53:50.806Z,99.99
2017-09-06T04:54:18.947Z,99.99
2017-09-06T04:54:47.118Z,99.99
2017-09-06T04:55:15.382Z,99.99
2017-09-06T04:55:43.561Z,99.99
2017-09-06T04:56:11.711Z,99.99
2017-09-06T04:56:39.996Z,99.99
2017-09-06T04:57:08.234Z,99.99
2017-09-06T04:57:36.487Z,99.99
2017-09-06T04:58:04.741Z,99.99
2017-09-06T04:58:32.792Z,99.99
2017-09-06T04:59:00.836Z,99.99
2017-09-06T04:59:29.075Z,99.99
2017-09-06T04:59:57.272Z,99.99
2017-09-06T05:00:25.518Z,99.99
2017-09-06T05:00:53.581Z,99.99
2017-09-06T05:01:21.711Z,99.99
2017-09-06T05:01:50.030Z,99.99
2017-09-06T05:02:18.263Z,99.99
2017-09-06T05:02:46.366Z,99.99
2017-09-06T05:03:14.524Z,99.99
2017-09-06T05:03:42.594Z,99.99
2017-09-06T05:04:10.789Z,99.99
2017-09-06T05:04:38.997Z,99.99
2017-09-06T05:05:07.288Z,99.99
2017-09-06T05:05:35.444Z,99.99
2017-09-06T05:06:03.505Z,99.99
2017-09-06T05:06:31.635Z,99.99
2017-09-06T05:06:59.980Z,99.99
2017-09-06T05:07:28.089Z,99.99
2017-09-06T05:07:56.324Z,99.99
2017-09-06T05:08:24.278Z,99.99
2017-09-06T05:08:52.395Z,99.99
2017-09-06T05:09:20.433Z,99.99
2017-09-06T05:09:48.372Z,99.99
2017-09-06T05:10:16.426Z,99.99
2017-09-06T05:10:44.660Z,99.99
2017-09-06T05:11:12.707Z,99.99
2017-09-06T05:11:40.957Z,99.99
2017-09-06T05:12:09.303Z,99.99
2017-09-06T05:12:37.475Z,99.99
2017-09-06T05:13:05.628Z,99.99
2017-09-06T05:13:33.876Z,99.99
2017-09-06T05:14:02.026Z,99.99
2017-09-06T05:14:30.272Z,99.99
2017-09-06T05:14:58.502Z,99.99
2017-09-06T05:15:26.725Z,99.99
2017-09-06T05:15:54.949Z,99.99
2017-09-06T05:16:23.104Z,99.99
2017-09-06T05:16:51.462Z,99.99
2017-09-06T05:17:19.578Z,99.99
2017-09-06T05:17:47.792Z,99.99
2017-09-06T05:18:15.954Z,99.99
2017-09-06T05:18:44.067Z,99.99
2017-09-06T05:19:12.189Z,99.99
2017-09-06T05:19:40.316Z,99.99
2017-09-06T05:20:08.541Z,99.99
2017-09-06T05:20:36.776Z,99.99
2017-09-06T05:21:04.915Z,99.99
2017-09-06T05:21:33.148Z,99.99
2017-09-06T05:22:01.392Z,99.99
2017-09-06T05:22:29.560Z,99.99
2017-09-06T05:22:57.812Z,99.99
2017-09-06T05:23:26.032Z,99.99
2017-09-06T05:23:54.072Z,99.99
2017-09-06T05:24:22.189Z,99.99
2017-09-06T05:24:50.427Z,99.99
2017-09-06T05:25:18.645Z,99.99
2017-09-06T05:25:46.773Z,99.99
2017-09-06T05:26:15.001Z,99.99
2017-09-06T05:26:43.057Z,99.99
2017-09-06T05:27:11.383Z,99.99
2017-09-06T05:27:39.635Z,99.99
2017-09-06T05:28:07.693Z,99.99
2017-09-06T05:28:35.822Z,99.99
2017-09-06T05:29:04.069Z,99.99
2017-09-06T05:29:32.321Z,99.99
2017-09-06T05:30:00.346Z,99.99
2017-09-06T05:30:28.603Z,99.99
2017-09-06T05:30:56.809Z,99.99
2017-09-06T05:31:24.912Z,99.99
2017-09-06T05:31:53.014Z,99.99
2017-09-06T05:32:21.245Z,99.99
2017-09-06T05:32:49.445Z,99.99
2017-09-06T05:33:17.701Z,99.99
2017-09-06T05:33:45.956Z,99.99
2017-09-06T05:34:14.186Z,99.99
2017-09-06T05:34:42.410Z,99.99
2017-09-06T05:35:10.629Z,99.99
2017-09-06T05:35:38.889Z,99.99
2017-09-06T05:36:07.031Z,99.99
2017-09-06T05:36:35.292Z,99.99
2017-09-06T05:37:03.458Z,99.99
2017-09-06T05:37:31.629Z,99.99
2017-09-06T05:37:59.601Z,99.99
2017-09-06T05:38:27.738Z,99.99
2017-09-06T05:38:55.948Z,99.99
2017-09-06T05:39:24.099Z,99.99
2017-09-06T05:39:52.280Z,99.99
2017-09-06T05:40:20.429Z,99.99
2017-09-06T05:40:48.618Z,99.99
2017-09-06T05:41:16.549Z,99.99
2017-09-06T05:41:44.798Z,99.99
2017-09-06T05:42:12.940Z,99.99
2017-09-06T05:42:41.046Z,99.99
2017-09-06T05:43:09.282Z,99.99
2017-09-06T05:43:37.496Z,99.99
2017-09-06T05:44:05.741Z,99.99
2017-09-06T05:44:33.999Z,99.99
2017-09-06T05:45:02.223Z,99.99
2017-09-06T05:45:30.304Z,99.99
2017-09-06T05:45:58.534Z,99.99
2017-09-06T05:46:26.701Z,99.99
2017-09-06T05:46:54.925Z,99.99
2017-09-06T05:47:23.226Z,99.99
2017-09-06T05:47:51.440Z,99.99
2017-09-06T05:48:19.539Z,99.99
2017-09-06T05:48:47.681Z,99.99
2017-09-06T05:49:15.711Z,99.99
2017-09-06T05:49:43.925Z,99.99
2017-09-06T05:50:12.048Z,99.99
2017-09-06T05:50:40.250Z,99.99
2017-09-06T05:51:08.506Z,99.99
2017-09-06T05:51:36.715Z,99.99
2017-09-06T05:52:04.952Z,99.99
2017-09-06T05:52:33.117Z,99.99
2017-09-06T05:53:01.180Z,99.99
2017-09-06T05:53:29.312Z,99.99
2017-09-06T05:53:57.472Z,99.99
2017-09-06T05:54:25.597Z,99.99
2017-09-06T05:54:53.851Z,99.99
2017-09-06T05:55:21.888Z,99.99
2017-09-06T05:55:50.008Z,99.99
2017-09-06T05:56:18.254Z,99.99
2017-09-06T05:56:46.396Z,99.99
2017-09-06T05:57:14.488Z,99.99
2017-09-06T05:57:42.822Z,99.99
2017-09-06T05:58:10.882Z,99.99
2017-09-06T05:58:39.871Z,99.99
2017-09-06T05:59:07.914Z,99.99
2017-09-06T05:59:36.066Z,99.99
2017-09-06T06:00:04.223Z,99.99
2017-09-06T06:00:32.456Z,99.99
2017-09-06T06:01:00.687Z,99.99
2017-09-06T06:01:28.826Z,99.99
2017-09-06T06:01:57.047Z,99.99
2017-09-06T06:02:25.207Z,99.99
2017-09-06T06:02:53.509Z,99.99
2017-09-06T06:03:21.536Z,99.99
2017-09-06T06:03:49.707Z,99.99
2017-09-06T06:04:17.949Z,99.99
2017-09-06T06:04:46.188Z,99.99